METAR* REPORTS - Stations within 60 miles

(*Meteorological Terminal Aviation Routine weather report)

 

KRDG - Reading, Pennsylvania, USA
Distance from station: SE 19mi, 31km
Updated: Sun, 18-Apr-2021 11:54am EDT
Mostly Cloudy
Mostly Cloudy
 Wind from varies
Wind: varies 5 mph , 7 km/h
Temperature: 59°F , 15°C
Dew Point: 39°F , 4°C
Humidity: 48%
Barometer: 29.85 inHg , 1010.8 hPa
Clouds: Mostly Cloudy
Visibility: 10 miles , 16 km
Cloud details: Few Clouds 4400 ft
Mostly Cloudy 6000 ft
2021/04/18 15:54 KRDG 181554Z VRB04KT 10SM FEW044 BKN060 15/04 A2985 RMK AO2 SLP113 T01500044 $
KLNS - Lancaster, Pennsylvania, USA
Distance from station: S 33mi, 53km
Updated: Sun, 18-Apr-2021 11:53am EDT
Partly Cloudy
Partly Cloudy
 Wind from WSW
Wind: WSW 9 mph , 15 km/h, Gust: 17 mph , 28 km/h
Temperature: 61°F , 16°C
Dew Point: 43°F , 6°C
Humidity: 52%
Barometer: 29.87 inHg , 1011.5 hPa
Clouds: Partly Cloudy
Visibility: 10 miles , 16 km
Cloud details: Few Clouds 4500 ft
Partly Cloudy 5000 ft
2021/04/18 15:53 KLNS 181553Z 25008G15KT 10SM FEW045 SCT050 16/06 A2987 RMK AO2 SLP113 T01560056
 
KSEG - Selinsgrove, Pennsylvania, USA
Distance from station: WNW 39mi, 62km
Updated: Sun, 18-Apr-2021 11:53am EDT
Few Clouds
Few Clouds
 Wind from varies
Wind: varies 3 mph , 6 km/h
Temperature: 57°F , 14°C
Dew Point: 39°F , 4°C
Humidity: 51%
Barometer: 29.86 inHg , 1011.2 hPa
Clouds: Few Clouds
Visibility: 10 miles , 16 km
Cloud details: Few Clouds 4600 ft
2021/04/18 15:53 KSEG 181553Z AUTO VRB03KT 10SM FEW046 14/04 A2986 RMK AO2 SLP112 T01440039 $
KABE - Allentown, Pennsylvania, USA
Distance from station: E 39mi, 63km
Updated: Sun, 18-Apr-2021 11:51am EDT
Mostly Cloudy
Mostly Cloudy
 Wind from NNW
Wind: NNW 10 mph , 17 km/h
Temperature: 57°F , 14°C
Dew Point: 37°F , 3°C
Humidity: 48%
Barometer: 29.84 inHg , 1010.5 hPa
Clouds: Mostly Cloudy
Visibility: 10 miles , 16 km
Cloud details: Mostly Cloudy 4800 ft
2021/04/18 15:51 KABE 181551Z 34009KT 10SM BKN048 14/03 A2984 RMK AO2 SLP106 T01390028
 
KMDT - Middletown, Pennsylvania, USA
Distance from station: SW 40mi, 65km
Updated: Sun, 18-Apr-2021 11:56am EDT
Partly Cloudy
Partly Cloudy
 Wind from W
Wind: W 5 mph , 7 km/h
Temperature: 61°F , 16°C
Dew Point: 37°F , 3°C
Humidity: 42%
Barometer: 29.87 inHg , 1011.5 hPa
Clouds: Partly Cloudy
Visibility: 10 miles , 16 km
Cloud details: Partly Cloudy 5500 ft
2021/04/18 15:56 KMDT 181556Z 27004KT 10SM SCT055 16/03 A2987 RMK AO2 SLP115 T01560028 $
KPTW - Pottstown, Pennsylvania, USA
Distance from station: SE 42mi, 67km
Updated: Sun, 18-Apr-2021 11:54am EDT
Partly Cloudy
Partly Cloudy
 Wind from NW
Wind: NW 10 mph , 17 km/h
Temperature: 57°F , 14°C
Dew Point: 37°F , 3°C
Humidity: 48%
Barometer: 29.87 inHg , 1011.5 hPa
Clouds: Partly Cloudy
Visibility: 10 miles , 16 km
Cloud details: Few Clouds 4500 ft
Partly Cloudy 6000 ft
2021/04/18 15:54 KPTW 181554Z AUTO 31009KT 10SM FEW045 SCT060 14/03 A2987 RMK AO2 SLP114 T01390033
 
KCXY - Harrisburg, Pennsylvania, USA
Distance from station: SW 43mi, 69km
Updated: Sun, 18-Apr-2021 11:56am EDT
Clear
Clear
 Wind from NNW
Wind: NNW 9 mph , 15 km/h
Temperature: 61°F , 16°C
Dew Point: 37°F , 3°C
Humidity: 42%
Barometer: 29.88 inHg , 1011.9 hPa
Clouds: Clear
Visibility: 10 miles , 16 km
2021/04/18 15:56 KCXY 181556Z 34008KT 10SM CLR 16/03 A2988 RMK AO2 SLP118 T01560033
KUKT - Quakertown Arp, Pennsylvania, USA
Distance from station: ESE 44mi, 70km
Updated: Sun, 18-Apr-2021 12:35pm EDT
Mostly Cloudy
Mostly Cloudy
 Wind from WSW
Wind: WSW 8 mph , 13 km/h
Temperature: 59°F , 15°C
Dew Point: 39°F , 4°C
Humidity: 48%
Barometer: 29.85 inHg , 1010.8 hPa
Clouds: Mostly Cloudy
Visibility: 10 miles , 16 km
Cloud details: Few Clouds 4700 ft
Partly Cloudy 5500 ft
Mostly Cloudy 6500 ft
2021/04/18 16:35 KUKT 181635Z AUTO 25007KT 10SM FEW047 SCT055 BKN065 15/04 A2985 RMK A01
 
KMQS - Coatesville, Pennsylvania, USA
Distance from station: SSE 45mi, 72km
Updated: Sun, 18-Apr-2021 12:35pm EDT
Few Clouds
Few Clouds
 Wind from NW
Wind: NW 7 mph , 11 km/h, Gust: 14 mph , 22 km/h
Temperature: 59°F , 15°C
Dew Point: 39°F , 4°C
Humidity: 48%
Barometer: 29.87 inHg , 1011.5 hPa
Clouds: Few Clouds
Visibility: 10 miles , 16 km
Cloud details: Few Clouds 4500 ft
Few Clouds 11000 ft
2021/04/18 16:35 KMQS 181635Z AUTO 31006G12KT 10SM FEW045 FEW110 15/04 A2987 RMK AO2
KMPO - Mt. Pocono, Pennsylvania, USA
Distance from station: NE 57mi, 92km
Updated: Sun, 18-Apr-2021 11:53am EDT
Mostly Cloudy
Mostly Cloudy
 Wind from W
Wind: W 12 mph , 19 km/h, Gust: 17 mph , 28 km/h
Temperature: 50°F , 10°C
Wind Chill: 45°F , 7°C
Dew Point: 36°F , 2°C
Humidity: 58%
Barometer: 29.82 inHg , 1009.8 hPa
Clouds: Mostly Cloudy
Visibility: 10 miles , 16 km
Cloud details: Mostly Cloudy 3500 ft
Mostly Cloudy 4500 ft
2021/04/18 15:53 KMPO 181553Z AUTO 28010G15KT 10SM BKN035 BKN045 10/02 A2982 RMK AO2 SLP105 T01000017 $
 
KAVP - Avoca/Wilkes B., Pennsylvania, USA
Distance from station: NNE 58mi, 93km
Updated: Sun, 18-Apr-2021 11:54am EDT
Overcast
Overcast
 Wind from varies
Wind: varies 3 mph , 6 km/h
Temperature: 57°F , 14°C
Dew Point: 37°F , 3°C
Humidity: 48%
Barometer: 29.83 inHg , 1010.2 hPa
Clouds: Overcast
Visibility: 10 miles , 16 km
Cloud details: Partly Cloudy 4000 ft
Mostly Cloudy 5000 ft
Overcast 6000 ft
2021/04/18 15:54 KAVP 181554Z VRB03KT 10SM SCT040 BKN050 OVC060 14/03 A2983 RMK AO2 SLP102 T01390033
KTHV - York, Pennsylvania, USA
Distance from station: SW 59mi, 94km
Updated: Sun, 18-Apr-2021 11:53am EDT
Clear
Clear
 Wind from varies
Wind: varies 3 mph , 6 km/h
Temperature: 57°F , 14°C
Dew Point: 37°F , 3°C
Humidity: 48%
Barometer: 29.88 inHg , 1011.9 hPa
Clouds: Clear
Visibility: 10 miles , 16 km
2021/04/18 15:53 KTHV 181553Z AUTO VRB03KT 10SM CLR 14/03 A2988 RMK AO2 SLP120 T01440028
 
KDYL - Doylestown, Pennsylvania, USA
Distance from station: ESE 59mi, 95km
Updated: Sun, 18-Apr-2021 11:54am EDT
Overcast
Overcast
 Wind from NW
Wind: NW 8 mph , 13 km/h
Temperature: 57°F , 14°C
Dew Point: 37°F , 3°C
Humidity: 48%
Barometer: 29.85 inHg , 1010.8 hPa
Clouds: Overcast
Visibility: 10 miles , 16 km
Cloud details: Mostly Cloudy 4700 ft
Overcast 6000 ft
2021/04/18 15:54 KDYL 181554Z AUTO 32007KT 10SM BKN047 OVC060 14/03 A2985 RMK AO2 SLP107 T01440033
KIPT - Williamsport, Pennsylvania, USA
Distance from station: NW 60mi, 96km
Updated: Sun, 18-Apr-2021 11:54am EDT
Clear
Clear
 Wind from WSW
Wind: WSW 8 mph , 13 km/h
Temperature: 57°F , 14°C
Dew Point: 39°F , 4°C
Humidity: 51%
Barometer: 29.84 inHg , 1010.5 hPa
Clouds: Clear
Visibility: 10 miles , 16 km
2021/04/18 15:54 KIPT 181554Z 25007KT 10SM CLR 14/04 A2984 RMK AO2 SLP106 T01390039